Time;durP1;ratioP1;P1;durP2;ratioP2;P2;SDS_P1;SDS_P2;PMS_P1;PMS_P2;Temp;Humidity;BMP_temperature;BMP_pressure;BME280_temperature;BME280_humidity;BME280_pressure;Samples;Min_cycle;Max_cycle;Signal;HPM_P1;HPM_P2
2021/07/02 00:00:46;;;;;;;2.10;1.90;;;;;;;;;;5003172;28;20475;-47
2021/07/02 00:03:12;;;;;;;2.10;1.90;;;;;;;;;;4998124;28;20652;-47
2021/07/02 00:05:38;;;;;;;3.08;1.80;;;;;;;;;;4995186;28;20260;-46
2021/07/02 00:08:04;;;;;;;2.08;1.88;;;;;;;;;;4995004;28;20187;-47
2021/07/02 00:10:30;;;;;;;2.35;2.00;;;;;;;;;;4999988;28;20458;-46
2021/07/02 00:12:56;;;;;;;2.15;1.90;;;;;;;;;;5014685;28;20176;-47
2021/07/02 00:15:22;;;;;;;3.40;2.10;;;;;;;;;;5002517;28;20635;-47
2021/07/02 00:17:48;;;;;;;2.20;1.95;;;;;;;;;;4995600;28;20204;-47
2021/07/02 00:20:14;;;;;;;2.55;1.90;;;;;;;;;;4995226;28;20169;-47
2021/07/02 00:22:40;;;;;;;2.17;1.88;;;;;;;;;;4995209;28;20174;-47
2021/07/02 00:25:07;;;;;;;2.00;1.90;;;;;;;;;;5008608;28;20190;-47
2021/07/02 00:27:33;;;;;;;3.35;2.10;;;;;;;;;;5013077;28;20328;-47
2021/07/02 00:29:59;;;;;;;2.35;2.15;;;;;;;;;;5014732;28;20251;-47
2021/07/02 00:32:25;;;;;;;2.67;2.47;;;;;;;;;;5002468;28;20591;-47
2021/07/02 00:34:51;;;;;;;2.78;2.30;;;;;;;;;;4996418;28;20291;-47
2021/07/02 00:37:17;;;;;;;2.92;2.30;;;;;;;;;;4994573;28;20280;-47
2021/07/02 00:39:43;;;;;;;3.00;2.65;;;;;;;;;;4999010;28;20426;-47
2021/07/02 00:42:09;;;;;;;2.97;2.78;;;;;;;;;;5011507;28;20180;-47
2021/07/02 00:44:39;;;;;;;2.83;2.63;;;;;;;;;;5014714;28;20176;-46
2021/07/02 00:47:05;;;;;;;2.60;2.40;;;;;;;;;;5002744;28;20471;-47
2021/07/02 00:49:32;;;;;;;3.33;2.33;;;;;;;;;;4997798;28;20185;-47
2021/07/02 00:51:58;;;;;;;3.45;2.50;;;;;;;;;;5014215;28;20185;-47
2021/07/02 00:54:24;;;;;;;2.30;2.10;;;;;;;;;;5005216;28;20196;-47
2021/07/02 00:56:50;;;;;;;2.40;2.20;;;;;;;;;;5009921;28;20509;-47
2021/07/02 00:59:16;;;;;;;3.85;2.60;;;;;;;;;;5013863;28;20773;-47
2021/07/02 01:01:42;;;;;;;2.33;2.15;;;;;;;;;;4994555;28;20203;-47
2021/07/02 01:04:08;;;;;;;3.38;2.60;;;;;;;;;;5003636;28;20192;-46
2021/07/02 01:06:34;;;;;;;2.45;2.25;;;;;;;;;;5008569;28;20540;-47
2021/07/02 01:09:03;;;;;;;2.08;1.88;;;;;;;;;;5009840;28;20181;-47
2021/07/02 01:11:29;;;;;;;2.53;2.05;;;;;;;;;;5009385;28;20176;-47
2021/07/02 01:13:55;;;;;;;3.30;2.63;;;;;;;;;;5016566;28;20247;-47
2021/07/02 01:16:21;;;;;;;2.50;2.30;;;;;;;;;;5017252;28;20591;-47
2021/07/02 01:18:47;;;;;;;2.55;2.30;;;;;;;;;;5016707;28;20169;-47
2021/07/02 01:21:13;;;;;;;3.63;2.50;;;;;;;;;;4999409;28;20176;-47
2021/07/02 01:23:39;;;;;;;2.80;2.30;;;;;;;;;;4999014;28;20188;-47
2021/07/02 01:26:05;;;;;;;3.20;2.88;;;;;;;;;;4997765;28;20604;-47
2021/07/02 01:28:32;;;;;;;2.75;2.55;;;;;;;;;;5005769;28;20191;-47
2021/07/02 01:30:58;;;;;;;3.30;2.55;;;;;;;;;;4998074;28;20189;-47
2021/07/02 01:33:24;;;;;;;2.60;2.40;;;;;;;;;;5000093;28;20213;-47
2021/07/02 01:35:50;;;;;;;2.67;2.45;;;;;;;;;;4999567;28;20269;-47
2021/07/02 01:38:16;;;;;;;3.92;2.63;;;;;;;;;;5000433;28;20589;-47
2021/07/02 01:40:42;;;;;;;2.78;2.53;;;;;;;;;;5012852;28;20230;-47
2021/07/02 01:43:08;;;;;;;4.10;3.10;;;;;;;;;;5017624;28;20164;-47
2021/07/02 01:45:34;;;;;;;2.80;2.60;;;;;;;;;;5017297;28;20778;-47
2021/07/02 01:48:00;;;;;;;3.17;2.88;;;;;;;;;;5016681;28;20250;-47
2021/07/02 01:50:27;;;;;;;5.32;3.28;;;;;;;;;;5000968;28;20214;-47
2021/07/02 01:52:53;;;;;;;2.97;2.78;;;;;;;;;;5003353;28;20256;-47
2021/07/02 01:55:21;;;;;;;2.85;2.40;;;;;;;;;;5002082;28;20211;-47
2021/07/02 01:57:47;;;;;;;3.35;2.65;;;;;;;;;;4997241;28;20165;-46
2021/07/02 02:00:13;;;;;;;3.28;2.30;;;;;;;;;;5005344;28;20180;-46
2021/07/02 02:02:39;;;;;;;4.65;2.50;;;;;;;;;;5014604;28;20262;-47
2021/07/02 02:05:06;;;;;;;3.63;3.30;;;;;;;;;;5006096;28;20232;-47
2021/07/02 02:07:31;;;;;;;3.53;3.22;;;;;;;;;;5003925;28;20308;-47
2021/07/02 02:09:57;;;;;;;2.75;2.47;;;;;;;;;;5006341;28;20216;-47
2021/07/02 02:12:23;;;;;;;2.53;2.33;;;;;;;;;;5009750;28;20191;-47
2021/07/02 02:14:49;;;;;;;3.20;2.90;;;;;;;;;;5014431;28;20196;-47
2021/07/02 02:17:15;;;;;;;2.60;2.40;;;;;;;;;;4998094;28;20233;-47
2021/07/02 02:19:41;;;;;;;2.95;2.53;;;;;;;;;;5016750;28;20189;-47
2021/07/02 02:22:07;;;;;;;3.50;2.60;;;;;;;;;;5003819;28;20497;-47
2021/07/02 02:24:34;;;;;;;3.08;2.78;;;;;;;;;;5012798;28;20442;-47
2021/07/02 02:27:00;;;;;;;3.53;3.20;;;;;;;;;;5005109;28;20223;-47
2021/07/02 02:29:26;;;;;;;3.75;3.20;;;;;;;;;;5004981;28;20204;-47
2021/07/02 02:31:52;;;;;;;2.47;2.08;;;;;;;;;;4997393;28;20165;-47
2021/07/02 02:34:18;;;;;;;2.38;2.17;;;;;;;;;;4997443;28;20169;-47
2021/07/02 02:36:44;;;;;;;2.42;2.22;;;;;;;;;;5010102;28;20204;-47
2021/07/02 02:39:11;;;;;;;3.08;2.78;;;;;;;;;;5011086;28;20235;-47
2021/07/02 02:41:37;;;;;;;2.67;2.28;;;;;;;;;;5021039;28;20309;-47
2021/07/02 02:44:03;;;;;;;2.65;2.40;;;;;;;;;;5016749;28;20573;-47
2021/07/02 02:46:29;;;;;;;2.60;2.40;;;;;;;;;;5035838;28;20186;-47
2021/07/02 02:48:55;;;;;;;3.30;2.50;;;;;;;;;;5019841;28;20188;-47
2021/07/02 02:51:21;;;;;;;5.03;2.70;;;;;;;;;;5014013;28;20576;-47
2021/07/02 02:53:47;;;;;;;2.30;2.10;;;;;;;;;;5007772;28;20202;-47
2021/07/02 02:56:13;;;;;;;2.42;2.22;;;;;;;;;;5007342;28;20460;-47
2021/07/02 02:58:39;;;;;;;3.00;2.70;;;;;;;;;;5016203;28;20192;-47
2021/07/02 03:01:05;;;;;;;2.88;2.33;;;;;;;;;;4997866;28;20576;-47
2021/07/02 03:03:31;;;;;;;5.13;2.70;;;;;;;;;;5002484;28;20260;-47
2021/07/02 03:05:57;;;;;;;3.22;2.92;;;;;;;;;;5014066;28;20276;-47
2021/07/02 03:08:23;;;;;;;3.33;2.60;;;;;;;;;;5014369;28;20196;-46
2021/07/02 03:10:49;;;;;;;2.40;2.20;;;;;;;;;;5001003;28;20545;-47
2021/07/02 03:13:15;;;;;;;3.15;2.50;;;;;;;;;;4996702;28;20189;-47
2021/07/02 03:15:41;;;;;;;3.58;2.63;;;;;;;;;;4997344;28;20208;-47
2021/07/02 03:18:07;;;;;;;3.05;2.50;;;;;;;;;;5006789;28;20173;-46
2021/07/02 03:20:33;;;;;;;2.80;2.60;;;;;;;;;;4999865;28;20420;-47
2021/07/02 03:22:59;;;;;;;3.13;2.30;;;;;;;;;;5014773;28;20176;-47
2021/07/02 03:25:25;;;;;;;2.67;2.42;;;;;;;;;;5001945;28;20223;-47
2021/07/02 03:27:51;;;;;;;2.33;2.13;;;;;;;;;;5004532;28;20216;-47
2021/07/02 03:30:18;;;;;;;2.88;2.28;;;;;;;;;;4996972;28;20207;-47
2021/07/02 03:32:44;;;;;;;4.03;2.30;;;;;;;;;;5012796;28;20188;-47
2021/07/02 03:35:10;;;;;;;3.38;2.13;;;;;;;;;;5006250;28;20243;-47
2021/07/02 03:37:37;;;;;;;2.60;2.10;;;;;;;;;;5000410;28;20175;-47
2021/07/02 03:40:04;;;;;;;2.60;2.40;;;;;;;;;;5002564;28;20178;-47
2021/07/02 03:42:30;;;;;;;2.50;2.03;;;;;;;;;;5015444;28;20168;-46
2021/07/02 03:44:57;;;;;;;2.70;2.28;;;;;;;;;;5021419;28;20184;-47
2021/07/02 03:47:23;;;;;;;2.95;1.90;;;;;;;;;;5021180;28;20168;-46
2021/07/02 03:49:49;;;;;;;3.22;2.33;;;;;;;;;;5015368;28;20421;-47
2021/07/02 03:52:15;;;;;;;3.08;1.95;;;;;;;;;;5004469;28;20180;-47
2021/07/02 03:54:41;;;;;;;3.28;2.25;;;;;;;;;;5003341;28;20185;-47
2021/07/02 03:57:13;;;;;;;2.63;2.28;;;;;;;;;;4996798;28;20185;-47
2021/07/02 03:59:40;;;;;;;2.35;2.10;;;;;;;;;;5011747;28;20184;-47
2021/07/02 04:02:06;;;;;;;2.75;2.20;;;;;;;;;;5015085;28;20222;-47
2021/07/02 04:04:34;;;;;;;2.72;1.92;;;;;;;;;;5010403;28;20264;-46
2021/07/02 04:07:00;;;;;;;2.35;1.60;;;;;;;;;;5005873;28;20859;-46
2021/07/02 04:09:26;;;;;;;2.20;1.88;;;;;;;;;;5001463;28;20197;-47
2021/07/02 04:11:53;;;;;;;1.90;1.70;;;;;;;;;;5005196;28;20189;-46
2021/07/02 04:14:19;;;;;;;2.13;1.92;;;;;;;;;;5015024;28;20183;-46
2021/07/02 04:16:45;;;;;;;2.35;1.73;;;;;;;;;;5009287;28;20290;-47
2021/07/02 04:19:11;;;;;;;3.22;2.17;;;;;;;;;;5014901;28;20184;-47
2021/07/02 04:21:37;;;;;;;2.30;2.10;;;;;;;;;;5014483;28;20173;-47
2021/07/02 04:24:03;;;;;;;1.70;1.60;;;;;;;;;;5004442;28;20181;-47
2021/07/02 04:26:29;;;;;;;2.28;1.83;;;;;;;;;;5013165;28;20219;-47
2021/07/02 04:28:55;;;;;;;3.92;2.22;;;;;;;;;;5014323;28;20188;-47
2021/07/02 04:31:21;;;;;;;5.72;2.13;;;;;;;;;;5014628;28;20177;-46
2021/07/02 04:33:47;;;;;;;6.25;2.20;;;;;;;;;;5004984;28;20552;-47
2021/07/02 04:36:14;;;;;;;6.88;2.00;;;;;;;;;;4997814;28;20205;-47
2021/07/02 04:38:40;;;;;;;5.03;2.10;;;;;;;;;;4997148;28;20169;-46
2021/07/02 04:41:06;;;;;;;4.03;1.85;;;;;;;;;;5002912;28;20172;-46
2021/07/02 04:43:32;;;;;;;2.70;1.92;;;;;;;;;;5018629;28;20872;-46
2021/07/02 04:45:58;;;;;;;4.22;1.88;;;;;;;;;;5018234;28;20210;-47
2021/07/02 04:48:24;;;;;;;3.50;2.00;;;;;;;;;;5014313;28;20575;-47
2021/07/02 04:50:50;;;;;;;4.07;2.30;;;;;;;;;;5018443;28;20176;-47
2021/07/02 04:53:18;;;;;;;3.92;2.13;;;;;;;;;;5003406;28;20231;-47
2021/07/02 04:55:44;;;;;;;2.85;1.90;;;;;;;;;;5010749;28;20625;-46
2021/07/02 04:58:11;;;;;;;2.97;1.90;;;;;;;;;;5001944;28;20184;-47
2021/07/02 05:00:38;;;;;;;1.83;1.63;;;;;;;;;;4999606;28;20181;-46
2021/07/02 05:03:04;;;;;;;3.70;1.50;;;;;;;;;;4998859;28;20165;-47
2021/07/02 05:05:30;;;;;;;4.93;2.10;;;;;;;;;;5007507;28;20213;-47
2021/07/02 05:07:57;;;;;;;1.80;1.70;;;;;;;;;;5012897;28;20184;-47
2021/07/02 05:10:23;;;;;;;3.60;1.98;;;;;;;;;;5011804;28;20181;-47
2021/07/02 05:12:49;;;;;;;3.30;1.40;;;;;;;;;;5018089;28;20183;-46
2021/07/02 05:15:15;;;;;;;2.47;1.60;;;;;;;;;;5009930;28;20347;-46
2021/07/02 05:17:41;;;;;;;3.03;1.85;;;;;;;;;;4997644;28;20759;-46
2021/07/02 05:20:07;;;;;;;2.05;1.88;;;;;;;;;;5011990;28;20183;-46
2021/07/02 05:22:33;;;;;;;3.30;1.40;;;;;;;;;;5001054;28;20468;-47
2021/07/02 05:24:59;;;;;;;6.43;1.45;;;;;;;;;;5012597;28;20192;-47
2021/07/02 05:27:25;;;;;;;4.45;2.10;;;;;;;;;;5008816;28;20583;-47
2021/07/02 05:29:51;;;;;;;2.95;1.55;;;;;;;;;;5009122;28;20195;-46
2021/07/02 05:32:17;;;;;;;5.80;2.45;;;;;;;;;;5015775;28;20172;-47
2021/07/02 05:34:43;;;;;;;8.40;3.08;;;;;;;;;;5015786;28;20192;-47
2021/07/02 05:37:09;;;;;;;24.27;7.03;;;;;;;;;;5015971;28;20187;-47
2021/07/02 05:39:35;;;;;;;33.15;8.70;;;;;;;;;;5004932;28;20557;-46
2021/07/02 05:42:01;;;;;;;27.95;8.95;;;;;;;;;;5016107;28;20165;-47
2021/07/02 05:44:27;;;;;;;28.80;8.23;;;;;;;;;;5015631;28;20429;-47
2021/07/02 05:46:54;;;;;;;24.90;6.28;;;;;;;;;;5008919;28;20177;-46
2021/07/02 05:49:20;;;;;;;24.92;6.43;;;;;;;;;;5019266;28;20167;-46
2021/07/02 05:51:46;;;;;;;17.40;5.93;;;;;;;;;;5033443;28;20164;-47
2021/07/02 05:54:12;;;;;;;28.20;7.72;;;;;;;;;;5001497;28;20450;-46
2021/07/02 05:56:39;;;;;;;32.85;8.23;;;;;;;;;;5028694;28;20591;-46
2021/07/02 05:59:05;;;;;;;27.85;8.00;;;;;;;;;;5005677;28;20483;-46
2021/07/02 06:01:31;;;;;;;24.15;7.63;;;;;;;;;;5016028;28;20445;-46
2021/07/02 06:03:57;;;;;;;31.85;8.88;;;;;;;;;;5008569;28;20239;-47
2021/07/02 06:06:23;;;;;;;40.17;10.07;;;;;;;;;;4996476;28;20553;-47
2021/07/02 06:08:53;;;;;;;32.00;8.93;;;;;;;;;;5003725;28;20227;-47
2021/07/02 06:11:19;;;;;;;26.13;9.10;;;;;;;;;;5008955;28;20209;-47
2021/07/02 06:13:46;;;;;;;25.75;9.10;;;;;;;;;;4997477;28;20232;-46
2021/07/02 06:16:12;;;;;;;26.30;8.45;;;;;;;;;;4996087;28;20205;-47
2021/07/02 06:18:38;;;;;;;34.70;9.10;;;;;;;;;;4996918;28;20204;-46
2021/07/02 06:21:04;;;;;;;26.52;7.80;;;;;;;;;;5003148;28;20564;-46
2021/07/02 06:23:34;;;;;;;27.17;7.50;;;;;;;;;;5003047;28;20227;-46
2021/07/02 06:26:00;;;;;;;23.88;7.25;;;;;;;;;;5007689;28;20173;-46
2021/07/02 06:28:30;;;;;;;26.67;9.07;;;;;;;;;;4997184;28;20256;-46
2021/07/02 06:30:56;;;;;;;30.25;8.73;;;;;;;;;;5011264;28;20172;-46
2021/07/02 06:33:23;;;;;;;29.45;9.93;;;;;;;;;;5013912;28;20607;-47
2021/07/02 06:35:49;;;;;;;23.27;8.23;;;;;;;;;;4999764;28;20451;-46
2021/07/02 06:38:19;;;;;;;25.17;7.93;;;;;;;;;;5010567;28;20456;-46
2021/07/02 06:40:45;;;;;;;25.83;7.55;;;;;;;;;;5007887;28;20212;-46
2021/07/02 06:43:11;;;;;;;19.58;6.60;;;;;;;;;;4997969;28;20580;-46
2021/07/02 06:45:37;;;;;;;19.38;6.90;;;;;;;;;;4996695;28;20777;-47
2021/07/02 06:48:05;;;;;;;13.93;6.13;;;;;;;;;;4995221;28;20185;-47
2021/07/02 06:50:35;;;;;;;19.55;6.63;;;;;;;;;;4996453;28;20177;-46
2021/07/02 06:53:03;;;;;;;17.50;6.50;;;;;;;;;;5002481;28;20177;-46
2021/07/02 06:55:29;;;;;;;22.10;6.68;;;;;;;;;;5000078;28;20198;-46
2021/07/02 06:57:55;;;;;;;16.48;5.60;;;;;;;;;;5006430;28;20183;-46
2021/07/02 07:00:22;;;;;;;16.05;5.05;;;;;;;;;;5015824;28;20223;-47
2021/07/02 07:02:48;;;;;;;16.40;6.22;;;;;;;;;;5015302;28;20184;-46
2021/07/02 07:05:14;;;;;;;15.48;5.30;;;;;;;;;;5000710;28;20558;-47
2021/07/02 07:07:40;;;;;;;16.92;5.93;;;;;;;;;;4996071;28;20256;-46
2021/07/02 07:10:07;;;;;;;17.20;5.82;;;;;;;;;;5000409;28;20189;-46
2021/07/02 07:12:33;;;;;;;16.10;5.68;;;;;;;;;;4998096;28;20842;-47
2021/07/02 07:14:59;;;;;;;10.93;5.30;;;;;;;;;;4996406;28;20642;-47
2021/07/02 07:17:25;;;;;;;13.77;4.95;;;;;;;;;;4995856;28;20169;-46
2021/07/02 07:19:51;;;;;;;12.27;5.13;;;;;;;;;;5000842;28;20288;-46
2021/07/02 07:22:18;;;;;;;11.55;4.88;;;;;;;;;;5003747;28;20204;-47
2021/07/02 07:24:44;;;;;;;12.23;5.40;;;;;;;;;;5005784;28;20180;-46
2021/07/02 07:27:11;;;;;;;10.55;4.50;;;;;;;;;;4995716;28;20223;-46
2021/07/02 07:29:37;;;;;;;13.63;4.28;;;;;;;;;;5010468;28;20181;-46
2021/07/02 07:32:03;;;;;;;10.27;4.25;;;;;;;;;;4996139;28;20172;-47
2021/07/02 07:35:15;;;;;;;9.98;4.18;;;;;;;;;;5006939;28;20177;-47
2021/07/02 07:37:22;;;;;;;10.68;4.43;;;;;;;;;;5006255;28;20192;-47
2021/07/02 07:39:49;;;;;;;10.90;4.53;;;;;;;;;;4996574;28;20201;-46
2021/07/02 07:42:15;;;;;;;9.57;4.00;;;;;;;;;;4995802;28;20169;-47
2021/07/02 07:44:41;;;;;;;13.15;4.53;;;;;;;;;;4995731;28;20267;-47
2021/07/02 07:47:08;;;;;;;11.23;4.65;;;;;;;;;;5002531;28;20197;-47
2021/07/02 07:49:34;;;;;;;11.00;4.78;;;;;;;;;;5015297;28;20243;-47
2021/07/02 07:54:35;;;;;;;9.98;3.47;;;;;;;;;;5004837;28;20189;-47
2021/07/02 07:57:01;;;;;;;9.15;3.97;;;;;;;;;;5014499;28;20291;-47
2021/07/02 07:59:28;;;;;;;9.73;4.10;;;;;;;;;;5015194;28;20474;-47
2021/07/02 08:01:54;;;;;;;9.35;3.45;;;;;;;;;;5002826;28;20168;-47
2021/07/02 08:04:20;;;;;;;8.15;3.63;;;;;;;;;;5011006;28;20188;-47
2021/07/02 08:06:47;;;;;;;7.55;3.10;;;;;;;;;;5010872;28;20175;-47
2021/07/02 08:09:14;;;;;;;8.45;3.58;;;;;;;;;;5013409;28;20628;-47
2021/07/02 08:11:40;;;;;;;7.90;2.75;;;;;;;;;;5002517;28;20237;-47
2021/07/02 08:14:06;;;;;;;6.78;2.92;;;;;;;;;;4992577;28;20441;-47
2021/07/02 08:16:32;;;;;;;8.38;2.78;;;;;;;;;;5010141;28;20208;-47
2021/07/02 08:18:58;;;;;;;5.53;2.97;;;;;;;;;;5013343;28;20164;-47
2021/07/02 08:21:24;;;;;;;6.13;2.47;;;;;;;;;;5014004;28;20207;-47
2021/07/02 08:23:50;;;;;;;4.72;2.47;;;;;;;;;;4998388;28;20177;-47
2021/07/02 08:26:18;;;;;;;5.95;2.70;;;;;;;;;;4994770;28;20632;-47
2021/07/02 08:31:29;;;;;;;5.70;2.80;;;;;;;;;;4995379;28;20227;-47
2021/07/02 08:33:55;;;;;;;7.13;2.65;;;;;;;;;;4994933;28;20484;-47
2021/07/02 08:36:21;;;;;;;6.78;2.70;;;;;;;;;;4994636;28;20201;-47
2021/07/02 08:38:47;;;;;;;4.97;2.63;;;;;;;;;;4996176;28;20181;-47
2021/07/02 08:41:14;;;;;;;4.13;2.10;;;;;;;;;;4994984;28;20169;-47
2021/07/02 08:43:40;;;;;;;4.85;2.10;;;;;;;;;;4994881;28;20173;-47
2021/07/02 08:46:10;;;;;;;5.95;2.58;;;;;;;;;;4994702;28;20177;-47
2021/07/02 08:48:38;;;;;;;6.95;2.15;;;;;;;;;;4994758;28;20201;-47
2021/07/02 08:51:04;;;;;;;5.38;2.33;;;;;;;;;;4994976;28;20177;-47
2021/07/02 08:53:30;;;;;;;4.10;2.35;;;;;;;;;;4994974;28;20181;-47
2021/07/02 08:55:58;;;;;;;5.60;2.50;;;;;;;;;;4995457;28;20197;-47
2021/07/02 08:58:25;;;;;;;4.47;2.38;;;;;;;;;;4994860;28;20173;-47
2021/07/02 09:00:51;;;;;;;4.30;2.22;;;;;;;;;;4994816;28;20165;-47
2021/07/02 09:03:31;;;;;;;4.30;2.22;;;;;;;;;;4994683;28;20186;-47
2021/07/02 09:06:11;;;;;;;3.70;2.33;;;;;;;;;;4994380;28;20500;-47
2021/07/02 09:08:37;;;;;;;5.65;2.00;;;;;;;;;;4994840;28;20211;-47
2021/07/02 09:11:04;;;;;;;3.50;2.13;;;;;;;;;;4995548;28;20475;-47
2021/07/02 09:13:40;;;;;;;4.18;2.13;;;;;;;;;;4994451;28;20174;-47
2021/07/02 09:16:19;;;;;;;4.22;1.95;;;;;;;;;;4994330;28;20200;-47
2021/07/02 09:18:45;;;;;;;3.83;2.10;;;;;;;;;;4994739;28;20169;-47
2021/07/02 09:21:22;;;;;;;3.25;1.75;;;;;;;;;;4994731;28;20428;-47
2021/07/02 09:23:48;;;;;;;3.47;1.80;;;;;;;;;;4994498;28;20207;-47
2021/07/02 09:26:32;;;;;;;3.47;1.75;;;;;;;;;;4997634;28;20548;-47
2021/07/02 09:29:14;;;;;;;3.60;1.48;;;;;;;;;;5017702;28;20160;-47
2021/07/02 09:31:40;;;;;;;4.47;2.35;;;;;;;;;;5002569;28;20265;-47
2021/07/02 09:34:06;;;;;;;4.00;2.13;;;;;;;;;;4998118;28;20290;-47
2021/07/02 09:36:32;;;;;;;3.28;1.80;;;;;;;;;;5002201;28;20521;-47
2021/07/02 09:38:58;;;;;;;4.70;2.00;;;;;;;;;;4997867;28;20161;-47
2021/07/02 09:41:34;;;;;;;3.03;1.85;;;;;;;;;;5002769;28;20173;-47
2021/07/02 09:44:12;;;;;;;2.75;1.70;;;;;;;;;;5010523;28;20275;-47
2021/07/02 09:46:38;;;;;;;3.40;1.88;;;;;;;;;;5015942;28;20172;-47
2021/07/02 09:49:04;;;;;;;2.20;1.80;;;;;;;;;;5014475;28;20187;-47
2021/07/02 09:51:31;;;;;;;2.75;2.00;;;;;;;;;;5013424;28;20208;-47
2021/07/02 09:54:08;;;;;;;2.75;2.05;;;;;;;;;;5037047;28;20175;-47
2021/07/02 09:56:34;;;;;;;3.03;1.98;;;;;;;;;;5028869;28;20231;-47
2021/07/02 09:59:00;;;;;;;3.25;1.73;;;;;;;;;;5011690;28;20208;-47
2021/07/02 10:01:27;;;;;;;2.58;1.70;;;;;;;;;;5003988;28;20181;-47
2021/07/02 10:03:54;;;;;;;3.63;2.20;;;;;;;;;;4997901;28;20185;-47
2021/07/02 10:06:19;;;;;;;4.20;2.13;;;;;;;;;;5006035;28;20502;-47
2021/07/02 10:08:45;;;;;;;2.05;1.80;;;;;;;;;;5011714;28;20184;-47
2021/07/02 10:11:12;;;;;;;3.13;2.08;;;;;;;;;;5010231;28;20276;-47
2021/07/02 10:13:39;;;;;;;3.25;2.22;;;;;;;;;;4997435;28;20177;-47
2021/07/02 10:16:06;;;;;;;2.70;1.98;;;;;;;;;;4997819;28;20244;-47
2021/07/02 10:18:33;;;;;;;2.60;2.10;;;;;;;;;;4997065;28;20231;-47
2021/07/02 10:21:01;;;;;;;4.05;2.88;;;;;;;;;;5003122;28;20686;-47
2021/07/02 10:23:37;;;;;;;3.35;1.90;;;;;;;;;;5008955;28;20188;-48
2021/07/02 10:26:06;;;;;;;2.72;2.15;;;;;;;;;;5018461;28;20470;-47
2021/07/02 10:28:32;;;;;;;4.57;2.63;;;;;;;;;;5036205;28;20179;-47
2021/07/02 10:30:58;;;;;;;3.03;1.90;;;;;;;;;;5015247;28;20189;-47
2021/07/02 10:33:27;;;;;;;2.60;2.05;;;;;;;;;;5005154;28;20195;-47
2021/07/02 10:35:58;;;;;;;2.78;2.40;;;;;;;;;;5011693;28;20205;-47
2021/07/02 10:38:24;;;;;;;4.32;2.33;;;;;;;;;;5009324;28;20173;-47
2021/07/02 10:40:50;;;;;;;2.50;2.25;;;;;;;;;;5014356;28;20246;-47
2021/07/02 10:43:20;;;;;;;2.10;1.90;;;;;;;;;;5005774;28;20540;-47
2021/07/02 10:46:05;;;;;;;2.25;2.00;;;;;;;;;;5015057;28;20204;-47
2021/07/02 10:49:01;;;;;;;3.15;1.73;;;;;;;;;;5016428;28;20177;-47
2021/07/02 10:51:30;;;;;;;3.28;2.30;;;;;;;;;;5003130;28;20655;-48
2021/07/02 10:54:12;;;;;;;2.47;2.03;;;;;;;;;;5007354;28;20263;-47
2021/07/02 10:56:38;;;;;;;3.35;2.30;;;;;;;;;;5015578;28;20216;-48
2021/07/02 10:59:04;;;;;;;2.90;2.60;;;;;;;;;;5016488;28;20180;-47
2021/07/02 11:01:31;;;;;;;3.00;2.50;;;;;;;;;;5000759;28;20552;-48
2021/07/02 11:04:16;;;;;;;3.63;2.58;;;;;;;;;;5010735;28;20577;-47
2021/07/02 11:06:42;;;;;;;3.35;2.47;;;;;;;;;;5000641;28;20469;-47
2021/07/02 11:09:08;;;;;;;3.20;2.15;;;;;;;;;;5003723;28;20184;-48
2021/07/02 11:11:53;;;;;;;3.08;2.30;;;;;;;;;;5006338;28;20226;-48
2021/07/02 11:14:20;;;;;;;2.95;2.65;;;;;;;;;;5013931;28;20173;-48
2021/07/02 11:17:05;;;;;;;5.22;3.17;;;;;;;;;;5001606;28;20203;-48
2021/07/02 11:19:31;;;;;;;2.97;2.42;;;;;;;;;;5014499;28;20185;-47
2021/07/02 11:22:16;;;;;;;2.78;2.47;;;;;;;;;;5010620;28;20184;-47
2021/07/02 11:25:01;;;;;;;2.75;2.50;;;;;;;;;;5015408;28;20165;-48
2021/07/02 11:27:48;;;;;;;2.72;2.35;;;;;;;;;;5003187;28;20234;-47
2021/07/02 11:33:25;;;;;;;2.90;2.60;;;;;;;;;;5004453;28;20210;-47
2021/07/02 11:36:00;;;;;;;4.03;2.78;;;;;;;;;;4999263;28;20209;-48
2021/07/02 11:38:30;;;;;;;3.42;2.83;;;;;;;;;;5023316;28;20179;-48
2021/07/02 11:40:57;;;;;;;3.25;2.95;;;;;;;;;;5026337;28;20180;-48
2021/07/02 11:43:37;;;;;;;3.00;2.80;;;;;;;;;;5014992;28;20267;-48
2021/07/02 11:46:07;;;;;;;3.38;3.03;;;;;;;;;;5014856;28;20168;-47
2021/07/02 11:48:35;;;;;;;4.47;3.17;;;;;;;;;;5007653;28;20180;-47
2021/07/02 11:51:02;;;;;;;3.35;3.00;;;;;;;;;;5002547;28;20267;-47
2021/07/02 11:53:28;;;;;;;4.03;3.13;;;;;;;;;;5013888;28;20517;-47
2021/07/02 11:56:13;;;;;;;5.50;3.22;;;;;;;;;;4997999;28;20224;-47
2021/07/02 11:58:43;;;;;;;3.58;3.25;;;;;;;;;;4995602;28;20195;-47
2021/07/02 12:01:09;;;;;;;3.50;3.20;;;;;;;;;;4997681;28;20521;-48
2021/07/02 12:03:36;;;;;;;3.88;3.20;;;;;;;;;;5001191;28;20631;-47
2021/07/02 12:06:03;;;;;;;3.28;2.97;;;;;;;;;;5005149;28;20259;-47
2021/07/02 12:08:31;;;;;;;3.60;3.03;;;;;;;;;;5022627;28;20184;-47
2021/07/02 12:10:58;;;;;;;3.22;2.92;;;;;;;;;;5001334;28;20176;-48
2021/07/02 12:13:24;;;;;;;4.45;3.35;;;;;;;;;;5023719;28;20184;-47
2021/07/02 12:16:02;;;;;;;2.95;2.70;;;;;;;;;;5013680;28;20220;-48
2021/07/02 12:18:29;;;;;;;3.95;3.10;;;;;;;;;;4995336;28;20423;-48
2021/07/02 12:21:13;;;;;;;3.00;2.70;;;;;;;;;;5000113;28;20611;-47
2021/07/02 12:23:41;;;;;;;3.90;3.05;;;;;;;;;;5023372;28;20225;-47
2021/07/02 12:26:09;;;;;;;3.90;3.60;;;;;;;;;;5014379;28;20179;-47
2021/07/02 12:29:00;;;;;;;4.60;3.80;;;;;;;;;;5013824;28;20486;-47
2021/07/02 12:31:37;;;;;;;4.32;3.10;;;;;;;;;;5014106;28;20531;-47
2021/07/02 12:34:03;;;;;;;4.10;3.25;;;;;;;;;;4996902;28;20184;-47
2021/07/02 12:36:30;;;;;;;3.58;3.20;;;;;;;;;;4995728;28;20567;-47
2021/07/02 12:39:02;;;;;;;4.22;3.63;;;;;;;;;;4996011;28;20189;-47
2021/07/02 12:41:58;;;;;;;4.72;3.38;;;;;;;;;;4994509;28;20169;-47
2021/07/02 12:44:25;;;;;;;5.50;4.57;;;;;;;;;;4982442;28;20251;-49
2021/07/02 12:46:52;;;;;;;7.07;3.65;;;;;;;;;;4994678;28;20192;-47
2021/07/02 12:49:18;;;;;;;5.40;3.72;;;;;;;;;;4996476;28;20489;-47
2021/07/02 12:54:47;;;;;;;3.97;3.55;;;;;;;;;;5006655;28;20271;-47
2021/07/02 12:55:02;;;;;;;8.02;3.88;;;;;;;;;;4995747;28;20654;-47
2021/07/02 12:57:30;;;;;;;10.07;4.72;;;;;;;;;;5019718;28;20184;-47
2021/07/02 13:00:05;;;;;;;5.03;3.95;;;;;;;;;;5015012;28;20506;-47
2021/07/02 13:02:35;;;;;;;6.93;4.13;;;;;;;;;;5011180;28;20698;-47
2021/07/02 13:05:11;;;;;;;16.15;4.18;;;;;;;;;;5015632;28;20191;-47
2021/07/02 13:07:46;;;;;;;6.13;4.00;;;;;;;;;;5005854;28;20176;-47
2021/07/02 13:10:13;;;;;;;7.75;4.40;;;;;;;;;;4998736;28;20225;-48
2021/07/02 13:12:39;;;;;;;4.45;3.95;;;;;;;;;;5011427;28;20299;-47
2021/07/02 13:15:08;;;;;;;5.95;4.15;;;;;;;;;;5017062;28;20219;-47
2021/07/02 13:17:38;;;;;;;5.72;4.25;;;;;;;;;;5017795;28;20164;-47
2021/07/02 13:20:04;;;;;;;4.53;4.13;;;;;;;;;;5022871;28;20175;-47
2021/07/02 13:22:30;;;;;;;4.50;4.10;;;;;;;;;;5009260;28;20189;-47
2021/07/02 13:25:02;;;;;;;6.43;3.80;;;;;;;;;;4998383;28;20314;-47
2021/07/02 13:27:28;;;;;;;6.78;5.03;;;;;;;;;;5010163;28;20188;-47
2021/07/02 13:30:00;;;;;;;5.25;3.90;;;;;;;;;;4998093;28;20174;-47
2021/07/02 13:32:26;;;;;;;4.97;4.47;;;;;;;;;;5000706;28;20161;-47
2021/07/02 13:34:52;;;;;;;5.30;4.50;;;;;;;;;;5016408;28;20185;-47
2021/07/02 13:37:25;;;;;;;4.43;4.00;;;;;;;;;;5013114;28;20204;-47
2021/07/02 13:39:51;;;;;;;4.53;4.00;;;;;;;;;;5017198;28;20248;-47
2021/07/02 13:42:23;;;;;;;5.47;3.92;;;;;;;;;;5009438;28;20635;-47
2021/07/02 13:44:53;;;;;;;6.20;4.50;;;;;;;;;;5013197;28;20584;-48
2021/07/02 13:47:25;;;;;;;6.68;5.47;;;;;;;;;;5013092;28;20185;-48
2021/07/02 13:49:50;;;;;;;7.10;4.80;;;;;;;;;;5003404;28;20626;-47
2021/07/02 13:52:16;;;;;;;5.13;4.20;;;;;;;;;;5014791;28;20188;-47
2021/07/02 13:54:42;;;;;;;7.35;5.68;;;;;;;;;;5017266;28;20173;-47
2021/07/02 13:57:08;;;;;;;6.13;5.38;;;;;;;;;;5016672;28;20530;-47
2021/07/02 13:59:35;;;;;;;8.52;5.20;;;;;;;;;;5002637;28;20400;-47
2021/07/02 14:02:01;;;;;;;6.93;5.15;;;;;;;;;;5005918;28;20180;-48
2021/07/02 14:04:27;;;;;;;7.03;5.05;;;;;;;;;;5015095;28;20293;-48
2021/07/02 14:06:53;;;;;;;7.28;6.10;;;;;;;;;;5014718;28;20219;-47
2021/07/02 14:09:20;;;;;;;5.88;4.70;;;;;;;;;;5036596;28;20666;-47
2021/07/02 14:11:46;;;;;;;7.68;5.68;;;;;;;;;;5032981;28;20455;-47
2021/07/02 14:14:13;;;;;;;9.23;6.03;;;;;;;;;;5019788;28;20277;-47
2021/07/02 14:16:39;;;;;;;7.65;5.82;;;;;;;;;;4997116;28;20201;-48
2021/07/02 14:19:06;;;;;;;5.22;4.72;;;;;;;;;;4997728;28;20549;-48
2021/07/02 14:21:33;;;;;;;5.13;4.63;;;;;;;;;;5007620;28;20556;-48
2021/07/02 14:23:59;;;;;;;6.53;4.88;;;;;;;;;;4998892;28;20744;-47
2021/07/02 14:26:25;;;;;;;9.40;5.78;;;;;;;;;;5005338;28;20687;-48
2021/07/02 14:28:51;;;;;;;5.75;5.15;;;;;;;;;;5016290;28;20173;-48
2021/07/02 14:31:17;;;;;;;8.75;5.15;;;;;;;;;;5012100;28;20594;-48
2021/07/02 14:33:43;;;;;;;8.43;5.28;;;;;;;;;;5004333;28;20241;-47
2021/07/02 14:36:09;;;;;;;6.07;5.00;;;;;;;;;;5003493;28;20193;-48
2021/07/02 14:38:35;;;;;;;5.00;4.53;;;;;;;;;;5001517;28;20252;-48
2021/07/02 14:41:03;;;;;;;6.40;5.30;;;;;;;;;;4998133;28;20338;-47
2021/07/02 14:43:29;;;;;;;7.22;5.13;;;;;;;;;;4996905;28;20192;-48
2021/07/02 14:45:55;;;;;;;5.68;4.68;;;;;;;;;;4997446;28;20452;-48
2021/07/02 14:48:24;;;;;;;6.43;4.82;;;;;;;;;;4996987;28;20383;-48
2021/07/02 14:50:54;;;;;;;4.93;4.32;;;;;;;;;;5001596;28;20169;-48
2021/07/02 14:53:20;;;;;;;4.43;3.95;;;;;;;;;;5007696;28;20459;-47